Hanalei, Hawaii
Current Conditions -  °F | °C
As of 1:53 AM on Thursday 23 Oct 2014 (Local Time) from PHLI Reporting Station
Overcast Overcast  
Wind Chill: 26°   Ceiling: 2300
Heat Index: 28°   Visibility: 10mi
Dew Point: 23°   Wind: 12mph
Humidity: 82%   Direction: 90°E
Pressure: 30"   Gusts: NA
Location:  22.2°N, 159.49°W
Report Text: PHLI 231153Z 09010KT 10SM SCT019 BKN023 OVC036 26/23 A3000 RMK AO2 RAB37E46 SLP156 P0000 60000 70034 T02610228 10261 20250 58009 $
Loading
Personal Weather Stations






























Interactive Weather Map
Tropical Storm Tracking
New forecast layout! Learn more

10-Day Weather Forecast

Advertisements
Track Severe Weather on mobile